Time;durP1;ratioP1;P1;durP2;ratioP2;P2;SDS_P1;SDS_P2;PMS_P1;PMS_P2;Temp;Humidity;BMP_temperature;BMP_pressure;BME280_temperature;BME280_humidity;BME280_pressure;Samples;Min_cycle;Max_cycle;Signal;HPM_P1;HPM_P2
2022/06/28 00:00:30;;;;;;;2.15;1.50;;;;;;;;;;5063227;28;20403;-79
2022/06/28 00:02:56;;;;;;;2.30;1.60;;;;;;;;;;5072157;28;20387;-79
2022/06/28 00:05:22;;;;;;;2.08;1.50;;;;;;;;;;5045774;28;20379;-80
2022/06/28 00:07:48;;;;;;;2.50;1.70;;;;;;;;;;5047479;28;20463;-79
2022/06/28 00:10:15;;;;;;;4.82;1.65;;;;;;;;;;5070101;28;20387;-80
2022/06/28 00:12:41;;;;;;;2.53;2.08;;;;;;;;;;5070225;28;20384;-80
2022/06/28 00:17:53;;;;;;;2.47;1.88;;;;;;;;;;5059042;28;20410;-79
2022/06/28 00:20:20;;;;;;;4.35;2.20;;;;;;;;;;5064395;28;20866;-79
2022/06/28 00:22:46;;;;;;;3.03;1.95;;;;;;;;;;5071626;28;20454;-79
2022/06/28 00:25:12;;;;;;;2.45;1.90;;;;;;;;;;5059340;28;20378;-80
2022/06/28 00:27:39;;;;;;;2.40;1.92;;;;;;;;;;5069702;28;20376;-79
2022/06/28 00:30:05;;;;;;;2.38;2.17;;;;;;;;;;5071968;28;20376;-79
2022/06/28 00:32:32;;;;;;;2.25;2.05;;;;;;;;;;5072054;28;20403;-79
2022/06/28 00:34:58;;;;;;;2.90;2.13;;;;;;;;;;5071998;28;20380;-79
2022/06/28 00:37:24;;;;;;;1.92;1.73;;;;;;;;;;5072510;28;20396;-80
2022/06/28 00:39:50;;;;;;;4.75;2.10;;;;;;;;;;5076013;28;20425;-79
2022/06/28 00:42:16;;;;;;;2.42;1.95;;;;;;;;;;5076312;28;20381;-80
2022/06/28 00:44:43;;;;;;;3.38;1.88;;;;;;;;;;5075989;28;20379;-79
2022/06/28 00:47:09;;;;;;;2.78;1.80;;;;;;;;;;5075890;28;20379;-79
2022/06/28 00:49:40;;;;;;;2.00;1.70;;;;;;;;;;5074479;28;20372;-79
2022/06/28 00:52:06;;;;;;;2.13;1.77;;;;;;;;;;5074993;28;20375;-79
2022/06/28 00:54:32;;;;;;;4.43;2.10;;;;;;;;;;5075902;28;20940;-79
2022/06/28 00:56:58;;;;;;;3.20;1.77;;;;;;;;;;5075800;28;20494;-79
2022/06/28 00:59:24;;;;;;;3.15;2.33;;;;;;;;;;5075612;28;20423;-79
2022/06/28 01:01:50;;;;;;;2.95;2.20;;;;;;;;;;5075404;28;20396;-80
2022/06/28 01:04:16;;;;;;;2.30;2.10;;;;;;;;;;5074406;28;20920;-79
2022/06/28 01:06:42;;;;;;;3.00;1.90;;;;;;;;;;5075867;28;20425;-80
2022/06/28 01:09:08;;;;;;;3.35;1.95;;;;;;;;;;5075486;28;20388;-80
2022/06/28 01:11:35;;;;;;;2.88;2.20;;;;;;;;;;5075483;28;20380;-79
2022/06/28 01:14:07;;;;;;;3.08;2.25;;;;;;;;;;5075406;28;20384;-79
2022/06/28 01:16:33;;;;;;;2.90;2.60;;;;;;;;;;5066554;28;20382;-79
2022/06/28 01:18:59;;;;;;;2.33;2.13;;;;;;;;;;5073778;28;20795;-80
2022/06/28 01:21:27;;;;;;;3.17;2.30;;;;;;;;;;5049823;28;20430;-79
2022/06/28 01:23:54;;;;;;;2.60;2.40;;;;;;;;;;5070044;28;20372;-79
2022/06/28 01:26:20;;;;;;;2.50;2.30;;;;;;;;;;5075274;28;20391;-79
2022/06/28 01:28:47;;;;;;;2.47;2.30;;;;;;;;;;5075133;28;20391;-79
2022/06/28 01:31:13;;;;;;;2.42;2.25;;;;;;;;;;5074869;28;20387;-80
2022/06/28 01:33:40;;;;;;;2.75;2.45;;;;;;;;;;5075337;28;20399;-79
2022/06/28 01:36:09;;;;;;;2.70;2.38;;;;;;;;;;5075063;28;20429;-79
2022/06/28 01:38:36;;;;;;;2.60;2.40;;;;;;;;;;5069215;28;20397;-79
2022/06/28 01:41:02;;;;;;;3.92;2.60;;;;;;;;;;5055985;28;20453;-79
2022/06/28 01:43:28;;;;;;;4.55;2.88;;;;;;;;;;5072930;28;20375;-79
2022/06/28 01:45:55;;;;;;;4.43;3.08;;;;;;;;;;5075148;28;20437;-79
2022/06/28 01:48:21;;;;;;;3.92;3.40;;;;;;;;;;5074472;28;20395;-79
2022/06/28 01:50:48;;;;;;;3.20;2.90;;;;;;;;;;5062688;28;20400;-79
2022/06/28 01:53:14;;;;;;;3.72;2.92;;;;;;;;;;5069046;28;20433;-79
2022/06/28 01:55:40;;;;;;;4.85;2.90;;;;;;;;;;5074628;28;20407;-79
2022/06/28 01:58:06;;;;;;;3.28;2.60;;;;;;;;;;5067376;28;20403;-79
2022/06/28 02:00:32;;;;;;;3.90;3.10;;;;;;;;;;5074391;28;20884;-79
2022/06/28 02:02:58;;;;;;;3.95;2.83;;;;;;;;;;5074465;28;20371;-79
2022/06/28 02:05:25;;;;;;;3.42;3.13;;;;;;;;;;5074511;28;20415;-79
2022/06/28 02:07:51;;;;;;;3.85;2.95;;;;;;;;;;5074520;28;20411;-79
2022/06/28 02:10:17;;;;;;;3.10;2.90;;;;;;;;;;5074374;28;20892;-79
2022/06/28 02:12:43;;;;;;;3.65;3.33;;;;;;;;;;5074436;28;20433;-79
2022/06/28 02:15:10;;;;;;;3.30;2.97;;;;;;;;;;5066804;28;20381;-79
2022/06/28 02:17:36;;;;;;;3.93;3.10;;;;;;;;;;5073067;28;20449;-79
2022/06/28 02:20:04;;;;;;;5.13;3.17;;;;;;;;;;5069154;28;20381;-79
2022/06/28 02:22:30;;;;;;;3.88;3.55;;;;;;;;;;5071023;28;20426;-79
2022/06/28 02:24:56;;;;;;;3.67;3.37;;;;;;;;;;5062093;28;20411;-79
2022/06/28 02:27:22;;;;;;;3.80;3.50;;;;;;;;;;5070696;28;20805;-79
2022/06/28 02:29:48;;;;;;;5.00;3.40;;;;;;;;;;5050612;28;20434;-79
2022/06/28 02:32:14;;;;;;;3.85;3.45;;;;;;;;;;5050062;28;20888;-79
2022/06/28 02:40:22;;;;;;;3.77;3.30;;;;;;;;;;5073165;28;20765;-80
2022/06/28 02:42:49;;;;;;;5.27;3.37;;;;;;;;;;5073887;28;20368;-79
2022/06/28 02:45:15;;;;;;;3.70;3.40;;;;;;;;;;5073555;28;20445;-79
2022/06/28 02:47:41;;;;;;;4.03;3.65;;;;;;;;;;5072789;28;20861;-80
2022/06/28 02:50:07;;;;;;;5.67;4.07;;;;;;;;;;5070359;28;20385;-79
2022/06/28 02:52:33;;;;;;;5.85;4.18;;;;;;;;;;5073589;28;20446;-79
2022/06/28 02:54:59;;;;;;;5.40;4.90;;;;;;;;;;5073483;28;20749;-80
2022/06/28 02:57:25;;;;;;;5.63;5.07;;;;;;;;;;5073439;28;20469;-80
2022/06/28 02:59:51;;;;;;;6.75;6.10;;;;;;;;;;5073241;28;20379;-80
2022/06/28 03:02:17;;;;;;;6.60;5.85;;;;;;;;;;5072880;28;20741;-79
2022/06/28 03:04:43;;;;;;;7.05;5.20;;;;;;;;;;5073365;28;20387;-80
2022/06/28 03:07:09;;;;;;;8.07;5.13;;;;;;;;;;5073304;28;20375;-79
2022/06/28 03:09:35;;;;;;;5.55;4.75;;;;;;;;;;5073562;28;20372;-79
2022/06/28 03:12:04;;;;;;;6.90;4.88;;;;;;;;;;5073134;28;20383;-80
2022/06/28 03:14:30;;;;;;;5.97;4.57;;;;;;;;;;5071318;28;20433;-80
2022/06/28 03:16:56;;;;;;;4.55;4.03;;;;;;;;;;5066440;28;20375;-80
2022/06/28 03:19:22;;;;;;;5.10;4.60;;;;;;;;;;5072824;28;20473;-80
2022/06/28 03:21:48;;;;;;;5.13;4.63;;;;;;;;;;5064692;28;20741;-80
2022/06/28 03:24:14;;;;;;;5.38;4.88;;;;;;;;;;5072920;28;20387;-80
2022/06/28 03:26:40;;;;;;;5.80;5.28;;;;;;;;;;5071691;28;20372;-80
2022/06/28 03:29:06;;;;;;;5.93;5.38;;;;;;;;;;5071899;28;20384;-80
2022/06/28 03:31:32;;;;;;;6.13;5.63;;;;;;;;;;5057340;28;20888;-80
2022/06/28 03:33:58;;;;;;;6.20;5.65;;;;;;;;;;5072933;28;20395;-80
2022/06/28 03:36:24;;;;;;;6.35;5.80;;;;;;;;;;5072660;28;20384;-80
2022/06/28 03:38:50;;;;;;;6.78;5.82;;;;;;;;;;5072631;28;20899;-80
2022/06/28 03:41:22;;;;;;;7.10;6.37;;;;;;;;;;5072594;28;20513;-80
2022/06/28 03:43:51;;;;;;;6.78;6.28;;;;;;;;;;5073036;28;20363;-80
2022/06/28 03:46:17;;;;;;;7.43;6.30;;;;;;;;;;5058080;28;20386;-80
2022/06/28 03:48:44;;;;;;;7.07;5.88;;;;;;;;;;5071637;28;20464;-80
2022/06/28 03:51:10;;;;;;;7.05;6.32;;;;;;;;;;5057992;28;20386;-80
2022/06/28 03:53:36;;;;;;;6.20;5.60;;;;;;;;;;5056096;28;20384;-80
2022/06/28 03:56:02;;;;;;;6.13;5.47;;;;;;;;;;5072322;28;20380;-80
2022/06/28 03:58:28;;;;;;;6.20;5.38;;;;;;;;;;5054106;28;20474;-80
2022/06/28 04:00:54;;;;;;;5.43;5.03;;;;;;;;;;5059672;28;20442;-80
2022/06/28 04:03:20;;;;;;;5.43;4.93;;;;;;;;;;5072328;28;20531;-80
2022/06/28 04:05:46;;;;;;;6.63;5.45;;;;;;;;;;5072261;28;20376;-79
2022/06/28 04:08:12;;;;;;;5.32;4.90;;;;;;;;;;5072551;28;20883;-80
2022/06/28 04:10:38;;;;;;;5.63;5.05;;;;;;;;;;5072134;28;20379;-80
2022/06/28 04:13:04;;;;;;;7.10;5.43;;;;;;;;;;5071496;28;20383;-80
2022/06/28 04:15:31;;;;;;;5.75;5.13;;;;;;;;;;5061879;28;20496;-80
2022/06/28 04:17:57;;;;;;;5.38;4.80;;;;;;;;;;5059623;28;20441;-80
2022/06/28 04:20:23;;;;;;;5.22;4.72;;;;;;;;;;5064066;28;20472;-79
2022/06/28 04:22:49;;;;;;;4.73;4.23;;;;;;;;;;5057857;28;20876;-79
2022/06/28 04:25:15;;;;;;;5.88;4.40;;;;;;;;;;5072140;28;20869;-79
2022/06/28 04:27:41;;;;;;;5.38;4.95;;;;;;;;;;5071973;28;20466;-80
2022/06/28 04:30:07;;;;;;;6.60;4.80;;;;;;;;;;5072104;28;20468;-80
2022/06/28 04:32:33;;;;;;;7.13;4.75;;;;;;;;;;5071915;28;20399;-80
2022/06/28 04:34:59;;;;;;;6.38;4.90;;;;;;;;;;5071970;28;20429;-80
2022/06/28 04:37:25;;;;;;;5.50;4.50;;;;;;;;;;5072034;28;20492;-80
2022/06/28 04:39:51;;;;;;;6.28;5.40;;;;;;;;;;5071808;28;20741;-80
2022/06/28 04:42:20;;;;;;;5.75;5.18;;;;;;;;;;5071944;28;20379;-80
2022/06/28 04:44:46;;;;;;;6.45;5.43;;;;;;;;;;5071802;28;20398;-80
2022/06/28 04:47:12;;;;;;;5.88;5.30;;;;;;;;;;5072073;28;20864;-80
2022/06/28 04:49:39;;;;;;;6.20;5.70;;;;;;;;;;5069870;28;20407;-80
2022/06/28 04:52:05;;;;;;;5.75;5.35;;;;;;;;;;5056592;28;20852;-80
2022/06/28 04:54:31;;;;;;;6.43;5.85;;;;;;;;;;5071792;28;20394;-80
2022/06/28 04:56:57;;;;;;;6.13;4.88;;;;;;;;;;5071893;28;20383;-80
2022/06/28 04:59:24;;;;;;;5.38;4.88;;;;;;;;;;5071639;28;20407;-80
2022/06/28 05:01:49;;;;;;;8.40;5.53;;;;;;;;;;5071527;28;20433;-80
2022/06/28 05:04:16;;;;;;;6.13;5.57;;;;;;;;;;5071731;28;20915;-80
2022/06/28 05:06:42;;;;;;;6.03;5.30;;;;;;;;;;5071748;28;20383;-80
2022/06/28 05:09:08;;;;;;;5.88;5.20;;;;;;;;;;5071593;28;20414;-80
2022/06/28 05:11:34;;;;;;;5.90;5.40;;;;;;;;;;5071590;28;20388;-80
2022/06/28 05:14:00;;;;;;;6.13;4.97;;;;;;;;;;5071542;28;20380;-80
2022/06/28 05:16:26;;;;;;;5.93;5.20;;;;;;;;;;5061538;28;20780;-80
2022/06/28 05:18:52;;;;;;;5.88;5.05;;;;;;;;;;5070030;28;20908;-80
2022/06/28 05:21:18;;;;;;;7.87;5.87;;;;;;;;;;5055923;28;20381;-80
2022/06/28 05:23:44;;;;;;;6.03;5.50;;;;;;;;;;5065825;28;20382;-80
2022/06/28 05:26:10;;;;;;;5.88;5.38;;;;;;;;;;5069913;28;20452;-80
2022/06/28 05:28:36;;;;;;;6.35;5.85;;;;;;;;;;5066771;28;20383;-80
2022/06/28 05:31:03;;;;;;;8.18;6.32;;;;;;;;;;5075075;28;20378;-80
2022/06/28 05:33:30;;;;;;;6.60;6.00;;;;;;;;;;5074857;28;20422;-80
2022/06/28 05:35:56;;;;;;;7.13;6.45;;;;;;;;;;5074995;28;20380;-80
2022/06/28 05:38:22;;;;;;;6.45;5.85;;;;;;;;;;5074905;28;20407;-80
2022/06/28 05:40:48;;;;;;;6.28;5.43;;;;;;;;;;5069252;28;20394;-80
2022/06/28 05:43:14;;;;;;;6.03;5.05;;;;;;;;;;5074840;28;20434;-79
2022/06/28 05:45:40;;;;;;;4.90;4.40;;;;;;;;;;5073816;28;20446;-79
2022/06/28 05:48:06;;;;;;;4.95;4.38;;;;;;;;;;5074656;28;20438;-80
2022/06/28 05:50:32;;;;;;;4.32;3.92;;;;;;;;;;5065693;28;20389;-79
2022/06/28 05:52:58;;;;;;;4.32;3.90;;;;;;;;;;5066855;28;20376;-80
2022/06/28 05:55:24;;;;;;;4.30;3.80;;;;;;;;;;5056580;28;20415;-79
2022/06/28 05:57:51;;;;;;;4.03;3.72;;;;;;;;;;5064808;28;20416;-80
2022/06/28 06:00:17;;;;;;;3.92;3.63;;;;;;;;;;5074335;28;20517;-79
2022/06/28 06:02:43;;;;;;;4.87;3.63;;;;;;;;;;5073132;28;20752;-79
2022/06/28 06:05:11;;;;;;;4.10;3.80;;;;;;;;;;5074712;28;20387;-79
2022/06/28 06:07:37;;;;;;;4.37;3.90;;;;;;;;;;5074520;28;20387;-79
2022/06/28 06:10:03;;;;;;;3.92;3.50;;;;;;;;;;5057755;28;20394;-79
2022/06/28 06:12:29;;;;;;;4.28;3.78;;;;;;;;;;5043948;28;20948;-80
2022/06/28 06:14:55;;;;;;;4.80;3.25;;;;;;;;;;5043972;28;20419;-79
2022/06/28 06:17:21;;;;;;;3.40;3.10;;;;;;;;;;5070066;28;20905;-79
2022/06/28 06:19:47;;;;;;;3.47;3.17;;;;;;;;;;5071227;28;20405;-79
2022/06/28 06:22:13;;;;;;;4.72;3.50;;;;;;;;;;5055015;28;20866;-79
2022/06/28 06:24:39;;;;;;;3.80;3.40;;;;;;;;;;5068748;28;20390;-79
2022/06/28 06:27:05;;;;;;;3.83;3.43;;;;;;;;;;5054135;28;20388;-79
2022/06/28 06:29:31;;;;;;;3.95;3.65;;;;;;;;;;5073028;28;20445;-79
2022/06/28 06:31:57;;;;;;;4.03;3.72;;;;;;;;;;5070375;28;20397;-80
2022/06/28 06:34:24;;;;;;;4.35;3.67;;;;;;;;;;5067255;28;20783;-80
2022/06/28 06:36:50;;;;;;;3.72;3.38;;;;;;;;;;5054528;28;20393;-80
2022/06/28 06:39:16;;;;;;;3.77;3.47;;;;;;;;;;5063576;28;21005;-79
2022/06/28 06:41:42;;;;;;;5.25;3.30;;;;;;;;;;5072374;28;20771;-80
2022/06/28 06:44:09;;;;;;;3.75;3.33;;;;;;;;;;5074098;28;20383;-79
2022/06/28 06:46:36;;;;;;;4.05;3.75;;;;;;;;;;5073683;28;20433;-79
2022/06/28 06:49:02;;;;;;;3.95;3.55;;;;;;;;;;5073549;28;20383;-80
2022/06/28 06:51:30;;;;;;;3.95;2.75;;;;;;;;;;5058911;28;20494;-81
2022/06/28 06:53:57;;;;;;;3.15;2.20;;;;;;;;;;5059793;28;20874;-80
2022/06/28 06:56:23;;;;;;;3.00;2.10;;;;;;;;;;5062773;28;20382;-81
2022/06/28 06:58:49;;;;;;;3.05;2.25;;;;;;;;;;5071712;28;20429;-80
2022/06/28 07:01:15;;;;;;;2.40;2.20;;;;;;;;;;5061074;28;20904;-80
2022/06/28 07:03:44;;;;;;;2.95;2.63;;;;;;;;;;5054036;28;20439;-80
2022/06/28 07:06:13;;;;;;;2.63;2.42;;;;;;;;;;5053196;28;20385;-80
2022/06/28 07:08:40;;;;;;;2.60;1.60;;;;;;;;;;5052902;28;20470;-80
2022/06/28 07:11:06;;;;;;;3.25;1.80;;;;;;;;;;5052176;28;20805;-80
2022/06/28 07:13:32;;;;;;;2.20;1.88;;;;;;;;;;5063995;28;20423;-80
2022/06/28 07:15:58;;;;;;;3.22;2.03;;;;;;;;;;5058100;28;20470;-80
2022/06/28 07:18:24;;;;;;;2.10;1.92;;;;;;;;;;5066943;28;20461;-80
2022/06/28 07:20:52;;;;;;;2.88;1.90;;;;;;;;;;5068405;28;20379;-80
2022/06/28 07:23:18;;;;;;;1.92;1.83;;;;;;;;;;5058869;28;20468;-80
2022/06/28 07:25:44;;;;;;;2.20;2.00;;;;;;;;;;5055863;28;20393;-80
2022/06/28 07:28:10;;;;;;;2.40;2.20;;;;;;;;;;5069370;28;20408;-80
2022/06/28 07:30:37;;;;;;;2.17;2.08;;;;;;;;;;5063205;28;20384;-80
2022/06/28 07:33:03;;;;;;;2.60;1.80;;;;;;;;;;5072675;28;20386;-80
2022/06/28 07:35:29;;;;;;;2.35;1.70;;;;;;;;;;5072860;28;20399;-80
2022/06/28 07:37:55;;;;;;;1.60;1.50;;;;;;;;;;5072691;28;20411;-80
2022/06/28 07:40:21;;;;;;;1.60;1.50;;;;;;;;;;5057290;28;20841;-81
2022/06/28 07:42:47;;;;;;;2.10;1.50;;;;;;;;;;5053051;28;20468;-80
2022/06/28 07:45:14;;;;;;;1.83;1.65;;;;;;;;;;5047784;28;20462;-81
2022/06/28 07:47:40;;;;;;;3.08;1.30;;;;;;;;;;5062918;28;20387;-81
2022/06/28 07:52:51;;;;;;;1.70;1.60;;;;;;;;;;5063860;28;20914;-81
2022/06/28 07:55:17;;;;;;;1.97;1.70;;;;;;;;;;5058074;28;20415;-81
2022/06/28 07:57:43;;;;;;;1.75;1.55;;;;;;;;;;5064530;28;20409;-81
2022/06/28 08:00:09;;;;;;;1.70;1.60;;;;;;;;;;5067540;28;20479;-81
2022/06/28 08:02:36;;;;;;;1.60;1.27;;;;;;;;;;5072477;28;20376;-80
2022/06/28 08:05:02;;;;;;;1.17;1.10;;;;;;;;;;5068173;28;20433;-81
2022/06/28 08:07:28;;;;;;;2.28;1.30;;;;;;;;;;5064455;28;20454;-81
2022/06/28 08:09:54;;;;;;;1.70;1.27;;;;;;;;;;5072418;28;20410;-81
2022/06/28 08:12:20;;;;;;;1.15;1.05;;;;;;;;;;5072318;28;20841;-81
2022/06/28 08:14:46;;;;;;;0.95;0.90;;;;;;;;;;5068132;28;20405;-81
2022/06/28 08:17:12;;;;;;;1.65;1.10;;;;;;;;;;5050442;28;20731;-81
2022/06/28 08:19:38;;;;;;;1.30;1.20;;;;;;;;;;5059535;28;20415;-81
2022/06/28 08:22:04;;;;;;;2.60;1.10;;;;;;;;;;5067739;28;20377;-81
2022/06/28 08:24:31;;;;;;;1.17;1.07;;;;;;;;;;5067355;28;20389;-81
2022/06/28 08:26:57;;;;;;;1.10;0.95;;;;;;;;;;5052157;28;20370;-81
2022/06/28 08:29:23;;;;;;;1.40;1.00;;;;;;;;;;5069926;28;20391;-81
2022/06/28 08:31:49;;;;;;;1.30;1.20;;;;;;;;;;5072299;28;20376;-81
2022/06/28 08:34:15;;;;;;;1.98;1.13;;;;;;;;;;5068079;28;20433;-81
2022/06/28 08:36:41;;;;;;;1.73;1.00;;;;;;;;;;5065105;28;20387;-81
2022/06/28 08:39:07;;;;;;;2.00;1.10;;;;;;;;;;5049474;28;20417;-81
2022/06/28 08:41:34;;;;;;;1.95;1.10;;;;;;;;;;5054866;28;20394;-81
2022/06/28 08:44:01;;;;;;;1.30;1.00;;;;;;;;;;5059433;28;20744;-81
2022/06/28 08:46:27;;;;;;;1.48;1.02;;;;;;;;;;5071889;28;20372;-81
2022/06/28 08:48:54;;;;;;;1.57;1.07;;;;;;;;;;5071842;28;20379;-81
2022/06/28 08:51:20;;;;;;;2.33;1.25;;;;;;;;;;5055363;28;20393;-81
2022/06/28 08:53:47;;;;;;;1.08;0.98;;;;;;;;;;5058806;28;20379;-81
2022/06/28 08:56:15;;;;;;;1.83;1.23;;;;;;;;;;5064131;28;20484;-83
2022/06/28 08:58:42;;;;;;;1.45;1.00;;;;;;;;;;5056317;28;20888;-84
2022/06/28 09:01:09;;;;;;;1.10;0.75;;;;;;;;;;5073591;28;20399;-84
2022/06/28 09:03:36;;;;;;;1.52;0.80;;;;;;;;;;5068807;28;20387;-84
2022/06/28 09:06:02;;;;;;;1.75;1.08;;;;;;;;;;5076173;28;20390;-84
2022/06/28 09:08:28;;;;;;;4.10;0.90;;;;;;;;;;5058514;28;20913;-84
2022/06/28 09:10:54;;;;;;;0.88;0.80;;;;;;;;;;5057121;28;20397;-84
2022/06/28 09:13:21;;;;;;;1.85;0.90;;;;;;;;;;5056170;28;20397;-84
2022/06/28 09:15:51;;;;;;;1.25;1.02;;;;;;;;;;5064798;28;20379;-84
2022/06/28 09:18:18;;;;;;;1.00;0.90;;;;;;;;;;5070471;28;20790;-84
2022/06/28 09:20:44;;;;;;;1.20;1.10;;;;;;;;;;5066620;28;20934;-83
2022/06/28 09:23:23;;;;;;;1.77;0.93;;;;;;;;;;5062740;28;20382;-84
2022/06/28 09:25:49;;;;;;;2.27;1.17;;;;;;;;;;5059446;28;20374;-84
2022/06/28 09:28:35;;;;;;;1.83;1.20;;;;;;;;;;5071553;28;20795;-83
2022/06/28 09:31:20;;;;;;;2.20;1.30;;;;;;;;;;5060057;28;20905;-84
2022/06/28 09:33:48;;;;;;;2.50;1.40;;;;;;;;;;5060537;28;20391;-84
2022/06/28 09:36:15;;;;;;;1.23;1.08;;;;;;;;;;5069587;28;20395;-84
2022/06/28 09:38:41;;;;;;;1.67;1.20;;;;;;;;;;5066115;28;20427;-84
2022/06/28 09:41:19;;;;;;;1.27;1.10;;;;;;;;;;5069591;28;20922;-84
2022/06/28 09:43:52;;;;;;;1.50;1.40;;;;;;;;;;5060823;28;20376;-84
2022/06/28 09:46:19;;;;;;;1.90;1.10;;;;;;;;;;5064761;28;20385;-83
2022/06/28 09:48:45;;;;;;;2.33;1.40;;;;;;;;;;5054670;28;20388;-83
2022/06/28 09:51:11;;;;;;;2.28;1.23;;;;;;;;;;5065849;28;20457;-84
2022/06/28 09:53:44;;;;;;;1.40;1.30;;;;;;;;;;5063603;28;21039;-83
2022/06/28 09:56:11;;;;;;;3.25;1.40;;;;;;;;;;5060600;28;20380;-84
2022/06/28 09:58:38;;;;;;;1.43;1.30;;;;;;;;;;5070772;28;20465;-83
2022/06/28 10:01:04;;;;;;;1.47;1.37;;;;;;;;;;5070982;28;20486;-84
2022/06/28 10:03:30;;;;;;;2.38;1.45;;;;;;;;;;5069412;28;20380;-84
2022/06/28 10:05:57;;;;;;;1.50;1.40;;;;;;;;;;5073760;28;20464;-87
2022/06/28 10:08:23;;;;;;;2.05;1.40;;;;;;;;;;5067178;28;20841;-87
2022/06/28 10:10:50;;;;;;;2.30;1.35;;;;;;;;;;5073218;28;20391;-89
2022/06/28 10:16:10;;;;;;;1.50;1.40;;;;;;;;;;5065675;28;20776;-87
2022/06/28 10:18:37;;;;;;;1.50;1.40;;;;;;;;;;5069783;28;20429;-87
2022/06/28 10:21:03;;;;;;;2.00;1.50;;;;;;;;;;5060011;28;20446;-90
2022/06/28 10:23:33;;;;;;;1.55;1.45;;;;;;;;;;5074483;28;20414;-89
2022/06/28 10:26:14;;;;;;;2.60;1.60;;;;;;;;;;5074274;28;20406;-88
2022/06/28 10:28:45;;;;;;;1.98;1.60;;;;;;;;;;5068725;28;20482;-89
2022/06/28 10:31:23;;;;;;;2.15;1.50;;;;;;;;;;5062607;28;20411;-89
2022/06/28 10:33:54;;;;;;;2.00;1.90;;;;;;;;;;5057956;28;20429;-88
2022/06/28 10:36:21;;;;;;;3.40;2.60;;;;;;;;;;5058862;28;20474;-88
2022/06/28 10:39:09;;;;;;;3.17;2.30;;;;;;;;;;5056612;28;20493;-87
2022/06/28 10:41:38;;;;;;;2.83;2.58;;;;;;;;;;5068213;28;20394;-88
2022/06/28 10:44:23;;;;;;;2.87;2.67;;;;;;;;;;5054036;28;20458;-87
2022/06/28 10:46:57;;;;;;;2.95;2.70;;;;;;;;;;5054985;28;20383;-87
2022/06/28 10:49:23;;;;;;;3.25;2.95;;;;;;;;;;5053443;28;20384;-88
2022/06/28 10:52:09;;;;;;;3.00;2.80;;;;;;;;;;5053086;28;20412;-88
2022/06/28 10:54:35;;;;;;;3.17;2.78;;;;;;;;;;5052468;28;20835;-88
2022/06/28 10:57:01;;;;;;;2.60;2.40;;;;;;;;;;5057322;28;20379;-87
2022/06/28 10:59:37;;;;;;;2.63;2.42;;;;;;;;;;5053049;28;20405;-88
2022/06/28 11:02:04;;;;;;;2.38;2.17;;;;;;;;;;5055530;28;20391;-88
2022/06/28 11:04:31;;;;;;;2.28;2.00;;;;;;;;;;5052269;28;20373;-88
2022/06/28 11:06:56;;;;;;;3.20;2.15;;;;;;;;;;5053051;28;20443;-88
2022/06/28 11:09:22;;;;;;;2.38;2.13;;;;;;;;;;5052378;28;20854;-87
2022/06/28 11:12:07;;;;;;;4.18;2.17;;;;;;;;;;5051924;28;20377;-87
2022/06/28 11:14:36;;;;;;;2.20;2.00;;;;;;;;;;5048901;28;20888;-88
2022/06/28 11:17:02;;;;;;;1.92;1.77;;;;;;;;;;5055100;28;20381;-88
2022/06/28 11:19:28;;;;;;;2.05;1.85;;;;;;;;;;5072924;28;20405;-89
2022/06/28 11:21:55;;;;;;;1.95;1.70;;;;;;;;;;5072887;28;20440;-88
2022/06/28 11:24:23;;;;;;;2.30;1.90;;;;;;;;;;5073108;28;20372;-88
2022/06/28 11:29:34;;;;;;;2.40;1.75;;;;;;;;;;5054317;28;20373;-88
2022/06/28 11:32:00;;;;;;;3.87;1.60;;;;;;;;;;5061378;28;20387;-89
2022/06/28 11:34:26;;;;;;;1.90;1.80;;;;;;;;;;5072830;28;20380;-87
2022/06/28 11:36:56;;;;;;;2.30;1.73;;;;;;;;;;5073148;28;20391;-88
2022/06/28 11:39:23;;;;;;;1.70;1.50;;;;;;;;;;5066910;28;20397;-88
2022/06/28 11:41:51;;;;;;;2.17;1.90;;;;;;;;;;5066451;28;20440;-88
2022/06/28 11:44:17;;;;;;;2.23;1.60;;;;;;;;;;5052050;28;20374;-89
2022/06/28 11:46:45;;;;;;;1.92;1.77;;;;;;;;;;5053860;28;20394;-88
2022/06/28 11:49:11;;;;;;;1.63;1.52;;;;;;;;;;5053300;28;20451;-89
2022/06/28 11:51:40;;;;;;;1.70;1.60;;;;;;;;;;5055353;28;20789;-89
2022/06/28 11:54:06;;;;;;;1.75;1.65;;;;;;;;;;5051212;28;20524;-88
2022/06/28 11:56:45;;;;;;;1.80;1.70;;;;;;;;;;5052196;28;20388;-89
2022/06/28 11:59:11;;;;;;;2.47;1.83;;;;;;;;;;5049849;28;20485;-89
2022/06/28 12:01:42;;;;;;;3.22;1.70;;;;;;;;;;5050478;28;20422;-88
2022/06/28 12:04:09;;;;;;;1.60;1.33;;;;;;;;;;5053684;28;20461;-88
2022/06/28 12:06:36;;;;;;;2.20;1.65;;;;;;;;;;5048327;28;20377;-89
2022/06/28 12:09:06;;;;;;;1.60;1.50;;;;;;;;;;5052922;28;20388;-88
2022/06/28 12:11:34;;;;;;;3.17;1.65;;;;;;;;;;5051824;28;20385;-87
2022/06/28 12:14:03;;;;;;;1.55;1.40;;;;;;;;;;5054405;28;20387;-91
2022/06/28 12:16:43;;;;;;;2.17;1.55;;;;;;;;;;5063644;28;20379;-90
2022/06/28 12:19:10;;;;;;;1.80;1.50;;;;;;;;;;5072320;28;20407;-91
2022/06/28 12:21:36;;;;;;;1.55;1.30;;;;;;;;;;5072431;28;20372;-90
2022/06/28 12:24:03;;;;;;;1.60;1.50;;;;;;;;;;5067026;28;20380;-90
2022/06/28 12:26:45;;;;;;;3.67;1.42;;;;;;;;;;5072352;28;20371;-90
2022/06/28 12:29:12;;;;;;;2.70;1.27;;;;;;;;;;5058053;28;20377;-90
2022/06/28 12:31:47;;;;;;;1.50;1.40;;;;;;;;;;5050298;28;20791;-90
2022/06/28 12:34:15;;;;;;;1.40;1.30;;;;;;;;;;5050402;28;20386;-89
2022/06/28 12:36:41;;;;;;;1.50;1.40;;;;;;;;;;5052530;28;20781;-89
2022/06/28 12:39:07;;;;;;;1.38;1.20;;;;;;;;;;5051385;28;20405;-88
2022/06/28 12:41:33;;;;;;;1.40;1.30;;;;;;;;;;5050338;28;20735;-90
2022/06/28 12:43:59;;;;;;;1.83;1.10;;;;;;;;;;5052056;28;20385;-89
2022/06/28 12:46:25;;;;;;;1.63;1.30;;;;;;;;;;5051748;28;20401;-90
2022/06/28 12:48:51;;;;;;;1.40;1.30;;;;;;;;;;5050761;28;20518;-90
2022/06/28 12:51:17;;;;;;;1.90;1.40;;;;;;;;;;5053516;28;20385;-91
2022/06/28 12:53:43;;;;;;;1.67;1.15;;;;;;;;;;5055380;28;20407;-89
2022/06/28 12:56:09;;;;;;;1.67;1.10;;;;;;;;;;5061854;28;20442;-89
2022/06/28 12:58:36;;;;;;;2.30;1.30;;;;;;;;;;5071784;28;20453;-89
2022/06/28 13:01:02;;;;;;;1.75;1.10;;;;;;;;;;5066984;28;20883;-89
2022/06/28 13:03:28;;;;;;;3.25;1.45;;;;;;;;;;5068770;28;20931;-89
2022/06/28 13:05:55;;;;;;;1.75;1.23;;;;;;;;;;5046789;28;20383;-89
2022/06/28 13:08:21;;;;;;;3.30;1.40;;;;;;;;;;5073741;28;20376;-89
2022/06/28 13:10:47;;;;;;;1.73;1.30;;;;;;;;;;5070834;28;20417;-89
2022/06/28 13:13:19;;;;;;;2.20;1.47;;;;;;;;;;5056917;28;20449;-88
2022/06/28 13:15:45;;;;;;;1.80;1.20;;;;;;;;;;5053822;28;20384;-88
2022/06/28 13:18:14;;;;;;;1.65;1.30;;;;;;;;;;5071578;28;20884;-89
2022/06/28 13:20:40;;;;;;;2.40;1.30;;;;;;;;;;5070354;23;20454;-89
2022/06/28 13:23:06;;;;;;;1.50;1.20;;;;;;;;;;5071840;28;20761;-88
2022/06/28 13:25:32;;;;;;;1.73;1.30;;;;;;;;;;5078746;28;20387;-89
2022/06/28 13:27:58;;;;;;;1.25;1.10;;;;;;;;;;5068540;28;20376;-89
2022/06/28 13:30:24;;;;;;;1.52;1.40;;;;;;;;;;5071197;28;20760;-88
2022/06/28 13:32:50;;;;;;;2.15;1.40;;;;;;;;;;5071430;28;20371;-89
2022/06/28 13:35:16;;;;;;;1.90;1.25;;;;;;;;;;5070941;28;20387;-89
2022/06/28 13:37:42;;;;;;;2.53;1.38;;;;;;;;;;5076812;28;20894;-89
2022/06/28 13:40:09;;;;;;;1.50;1.40;;;;;;;;;;5071678;28;20788;-88
2022/06/28 13:42:35;;;;;;;1.73;1.50;;;;;;;;;;5071287;28;20373;-88
2022/06/28 13:45:07;;;;;;;1.52;1.10;;;;;;;;;;5071800;28;20876;-87
2022/06/28 13:47:34;;;;;;;1.42;1.33;;;;;;;;;;5075374;28;20384;-87
2022/06/28 13:50:00;;;;;;;1.50;1.10;;;;;;;;;;5074778;28;20375;-89
2022/06/28 13:52:26;;;;;;;1.67;1.08;;;;;;;;;;5073065;28;20884;-88
2022/06/28 13:54:52;;;;;;;1.63;1.40;;;;;;;;;;5075203;28;20790;-89
2022/06/28 13:57:19;;;;;;;2.10;1.40;;;;;;;;;;5074808;28;20457;-88
2022/06/28 13:59:46;;;;;;;2.50;1.42;;;;;;;;;;5074715;28;20760;-86
2022/06/28 14:02:13;;;;;;;1.60;1.30;;;;;;;;;;5074780;28;20403;-85
2022/06/28 14:04:40;;;;;;;2.72;1.30;;;;;;;;;;5074586;28;20417;-85
2022/06/28 14:07:06;;;;;;;2.40;1.30;;;;;;;;;;5073322;28;20372;-85
2022/06/28 14:09:32;;;;;;;1.88;1.20;;;;;;;;;;5073628;28;20495;-85
2022/06/28 14:11:59;;;;;;;1.38;1.27;;;;;;;;;;5074559;28;20384;-84
2022/06/28 14:14:25;;;;;;;2.03;1.50;;;;;;;;;;5074023;28;20780;-85
2022/06/28 14:16:51;;;;;;;1.75;1.30;;;;;;;;;;5073064;28;20384;-84
2022/06/28 14:19:17;;;;;;;2.75;1.52;;;;;;;;;;5073579;28;20742;-84
2022/06/28 14:21:43;;;;;;;1.73;1.45;;;;;;;;;;5072665;28;20398;-85
2022/06/28 14:24:10;;;;;;;1.58;1.38;;;;;;;;;;5056410;28;20393;-85
2022/06/28 14:26:36;;;;;;;1.90;1.67;;;;;;;;;;5054466;28;20456;-84
2022/06/28 14:29:03;;;;;;;2.15;1.55;;;;;;;;;;5054220;28;20461;-85
2022/06/28 14:31:29;;;;;;;1.70;1.60;;;;;;;;;;5054105;28;20778;-84
2022/06/28 14:33:55;;;;;;;2.58;1.40;;;;;;;;;;5054215;28;20439;-84
2022/06/28 14:36:22;;;;;;;1.63;1.40;;;;;;;;;;5054003;28;20377;-85
2022/06/28 14:38:48;;;;;;;3.15;1.75;;;;;;;;;;5066500;28;20407;-86
2022/06/28 14:41:14;;;;;;;2.28;1.70;;;;;;;;;;5073999;28;20380;-85
2022/06/28 14:43:40;;;;;;;2.80;1.40;;;;;;;;;;5073947;28;20376;-85
2022/06/28 14:46:06;;;;;;;2.38;1.33;;;;;;;;;;5073965;28;20400;-85
2022/06/28 14:48:32;;;;;;;2.50;1.63;;;;;;;;;;5073688;28;20462;-85
2022/06/28 14:50:58;;;;;;;1.60;1.40;;;;;;;;;;5073793;28;20888;-86
2022/06/28 14:53:25;;;;;;;1.87;1.43;;;;;;;;;;5073713;28;20774;-86
2022/06/28 14:55:51;;;;;;;2.88;1.60;;;;;;;;;;5073517;28;20390;-86
2022/06/28 14:58:18;;;;;;;2.67;1.60;;;;;;;;;;5073294;28;20411;-86